Portada
METAR-TAF:

METAR-TAF

Aeroports :

Narrabri, Austràlia

latitud: 30-19-09S, longitud: 149-49-38E, altitud: 240 m

Observació

L'informe es va fer fa 25 minuts, a les 19:00 UTC
Vent 11 kt del Nord/Nord-Est
Temperatura 15°C
Humitat 67%
Pressió 1018 hPa
Visibilitat 10 km o més

METAR: YNBR 131900Z AUTO 02011KT 9999 // NCD 15/09 Q1018

Hora: 05:25 (19:25 UTC)


TAF: manca

Observacions i pronòstics meteorològics de més de 4000 aeroports (METAR i TAF).

Les estacions disponibles són els punts grocs i vermells al mapa.

Posi el ratolí al punt desitjat per veure el nom de l'estació.

Feu clic per veure les observacions i els pronòstics meteorològics.

Per canviar el mapa: feu clic els botons verds amb una creu de color negre per apropar; al botó verd amb un guió per allunyar la imatge; o en les fletxes verdes per a mapes adjacents.


METAR-TAF: